createdAt,value
2022-10-25T00:01:45.296Z,96594.03
2022-10-25T00:04:18.926Z,96605.25
2022-10-25T00:06:53.213Z,96617.19
2022-10-25T00:09:26.201Z,96608.34
2022-10-25T00:11:59.406Z,96608.13
2022-10-25T00:14:32.789Z,96621.56
2022-10-25T00:17:05.686Z,96617.75
2022-10-25T00:19:38.802Z,96614.34
2022-10-25T00:22:13.245Z,96596.75
2022-10-25T00:24:46.894Z,96587.91
2022-10-25T00:27:19.775Z,96580.28
2022-10-25T00:29:53.759Z,96569.19
2022-10-25T00:32:26.935Z,96567.69
2022-10-25T00:34:59.826Z,96558.50
2022-10-25T00:37:34.545Z,96552.44
2022-10-25T00:40:09.557Z,96537.88
2022-10-25T00:42:42.703Z,96535.63
2022-10-25T00:45:23.409Z,96550.38
2022-10-25T00:48:02.193Z,96569.19
2022-10-25T00:50:46.521Z,96560.78
2022-10-25T00:53:25.004Z,96560.44
2022-10-25T00:56:03.372Z,96570.84
2022-10-25T00:58:40.060Z,96570.06
2022-10-25T01:01:14.687Z,96568.94
2022-10-25T01:03:52.535Z,96578.66
2022-10-25T01:06:32.720Z,96577.88
2022-10-25T01:09:10.181Z,96576.31
2022-10-25T01:11:43.069Z,96575.09
2022-10-25T01:14:17.517Z,96589.31
2022-10-25T01:17:06.266Z,96587.75
2022-10-25T01:19:58.301Z,96586.97
2022-10-25T01:22:38.847Z,96573.13
2022-10-25T01:25:34.536Z,96562.34
2022-10-25T01:28:13.874Z,96555.84
2022-10-25T01:31:07.871Z,96565.91
2022-10-25T01:33:48.482Z,96577.44
2022-10-25T01:36:30.512Z,96565.56
2022-10-25T01:39:10.055Z,96574.75
2022-10-25T01:41:52.076Z,96571.72
2022-10-25T01:44:40.307Z,96570.25
2022-10-25T01:47:19.330Z,96566.78
2022-10-25T01:49:57.764Z,96557.94
2022-10-25T01:52:31.378Z,96551.75
2022-10-25T01:55:10.445Z,96544.47
2022-10-25T01:58:02.610Z,96537.97
2022-10-25T02:00:44.551Z,96547.94
2022-10-25T02:03:29.700Z,96552.19
2022-10-25T02:06:16.054Z,96544.13
2022-10-25T02:08:53.286Z,96546.38
2022-10-25T02:11:29.461Z,96550.97
2022-10-25T02:14:12.223Z,96555.22
2022-10-25T02:16:50.799Z,96546.28
2022-10-25T02:19:31.028Z,96557.03
2022-10-25T02:22:06.908Z,96559.56
2022-10-25T02:24:41.558Z,96551.75
2022-10-25T02:27:15.927Z,96555.81
2022-10-25T02:29:49.964Z,96551.38
2022-10-25T02:32:23.833Z,96548.94
2022-10-25T02:34:58.794Z,96554.50
2022-10-25T02:37:32.850Z,96553.84
2022-10-25T02:40:08.535Z,96551.31
2022-10-25T02:42:41.900Z,96563.00
2022-10-25T02:45:15.520Z,96558.56
2022-10-25T02:47:49.172Z,96567.22
2022-10-25T02:50:24.165Z,96571.56
2022-10-25T02:52:57.253Z,96576.75
2022-10-25T02:55:30.972Z,96584.13
2022-10-25T02:58:04.256Z,96576.66
2022-10-25T03:00:38.406Z,96568.06
2022-10-25T03:03:11.905Z,96569.84
2022-10-25T03:05:47.417Z,96567.06
2022-10-25T03:08:21.175Z,96564.94
2022-10-25T03:10:54.804Z,96562.16
2022-10-25T03:13:28.064Z,96570.53
2022-10-25T03:16:01.347Z,96563.59
2022-10-25T03:18:34.473Z,96567.84
2022-10-25T03:21:09.799Z,96559.81
2022-10-25T03:23:42.790Z,96558.22
2022-10-25T03:26:17.283Z,96564.38
2022-10-25T03:28:50.344Z,96567.41
2022-10-25T03:31:23.869Z,96558.56
2022-10-25T03:33:57.367Z,96567.31
2022-10-25T03:36:32.278Z,96567.66
2022-10-25T03:39:05.262Z,96568.63
2022-10-25T03:41:39.914Z,96576.28
2022-10-25T03:44:13.534Z,96570.78
2022-10-25T03:46:46.585Z,96563.84
2022-10-25T03:49:19.498Z,96569.53
2022-10-25T03:51:57.129Z,96574.91
2022-10-25T03:54:33.348Z,96580.97
2022-10-25T03:57:06.844Z,96575.47
2022-10-25T03:59:40.396Z,96567.75
2022-10-25T04:02:13.801Z,96567.22
2022-10-25T04:04:47.193Z,96572.13
2022-10-25T04:07:21.872Z,96567.78
2022-10-25T04:09:54.868Z,96578.69
2022-10-25T04:12:28.078Z,96577.13
2022-10-25T04:15:01.362Z,96574.69
2022-10-25T04:17:34.705Z,96580.69
2022-10-25T04:20:09.562Z,96577.78
2022-10-25T04:22:44.310Z,96577.34
2022-10-25T04:25:18.351Z,96574.88
2022-10-25T04:27:51.395Z,96572.84
2022-10-25T04:30:24.288Z,96575.44
2022-10-25T04:32:58.214Z,96572.31
2022-10-25T04:35:31.229Z,96563.34
2022-10-25T04:38:06.178Z,96579.44
2022-10-25T04:40:39.652Z,96569.72
2022-10-25T04:43:13.205Z,96562.00
2022-10-25T04:45:46.530Z,96560.75
2022-10-25T04:48:20.429Z,96556.50
2022-10-25T04:50:53.397Z,96564.09
2022-10-25T04:53:28.728Z,96561.41
2022-10-25T04:56:04.683Z,96568.22
2022-10-25T04:58:38.472Z,96569.63
2022-10-25T05:01:13.323Z,96561.72
2022-10-25T05:03:46.843Z,96567.59
2022-10-25T05:06:22.757Z,96568.47
2022-10-25T05:08:57.107Z,96577.53
2022-10-25T05:11:30.234Z,96576.88
2022-10-25T05:14:03.554Z,96580.91
2022-10-25T05:16:36.670Z,96582.59
2022-10-25T05:19:10.261Z,96576.56
2022-10-25T05:21:43.251Z,96570.88
2022-10-25T05:24:17.793Z,96572.09
2022-10-25T05:26:50.901Z,96565.16
2022-10-25T05:29:23.797Z,96568.19
2022-10-25T05:31:56.921Z,96566.50
2022-10-25T05:34:29.909Z,96575.22
2022-10-25T05:37:02.841Z,96571.66
2022-10-25T05:39:36.969Z,96579.22
2022-10-25T05:42:09.865Z,96583.22
2022-10-25T05:44:42.734Z,96579.19
2022-10-25T05:47:15.851Z,96584.09
2022-10-25T05:49:49.052Z,96588.22
2022-10-25T05:52:24.445Z,96595.78
2022-10-25T05:54:59.286Z,96596.91
2022-10-25T05:57:32.600Z,96596.13
2022-10-25T06:00:07.215Z,96597.56
2022-10-25T06:02:40.443Z,96606.75
2022-10-25T06:05:13.394Z,96610.53
2022-10-25T06:07:46.381Z,96610.41
2022-10-25T06:10:21.050Z,96616.84
2022-10-25T06:12:55.435Z,96622.13
2022-10-25T06:15:28.578Z,96621.97
2022-10-25T06:18:01.467Z,96620.41
2022-10-25T06:20:34.452Z,96610.69
2022-10-25T06:23:09.224Z,96615.25
2022-10-25T06:25:46.052Z,96614.16
2022-10-25T06:28:19.366Z,96615.69
2022-10-25T06:30:52.441Z,96622.31
2022-10-25T06:33:27.904Z,96620.53
2022-10-25T06:36:02.518Z,96623.78
2022-10-25T06:38:35.876Z,96628.94
2022-10-25T06:41:13.753Z,96632.34
2022-10-25T06:43:46.952Z,96638.63
2022-10-25T06:46:23.692Z,96642.34
2022-10-25T06:48:58.473Z,96643.69
2022-10-25T06:51:33.441Z,96644.28
2022-10-25T06:54:09.874Z,96644.06
2022-10-25T06:56:44.530Z,96645.88
2022-10-25T06:59:18.144Z,96642.19
2022-10-25T07:01:51.279Z,96647.34
2022-10-25T07:04:24.295Z,96655.16
2022-10-25T07:06:57.311Z,96657.66
2022-10-25T07:09:30.639Z,96661.56
2022-10-25T07:12:08.794Z,96661.03
2022-10-25T07:14:45.942Z,96661.13
2022-10-25T07:17:18.740Z,96658.09
2022-10-25T07:19:52.285Z,96659.47
2022-10-25T07:22:25.810Z,96663.03
2022-10-25T07:24:59.014Z,96668.97
2022-10-25T07:27:34.500Z,96676.13
2022-10-25T07:30:08.686Z,96672.00
2022-10-25T07:32:42.620Z,96678.81
2022-10-25T07:35:15.628Z,96688.22
2022-10-25T07:37:49.150Z,96677.25
2022-10-25T07:40:22.220Z,96685.56
2022-10-25T07:42:57.044Z,96689.16
2022-10-25T07:45:31.271Z,96697.75
2022-10-25T07:48:04.783Z,96686.44
2022-10-25T07:50:38.398Z,96695.41
2022-10-25T07:53:11.734Z,96696.72
2022-10-25T07:55:44.621Z,96692.34
2022-10-25T07:58:21.123Z,96696.94
2022-10-25T08:00:54.163Z,96694.00
2022-10-25T08:03:27.082Z,96695.75
2022-10-25T08:06:00.965Z,96697.84
2022-10-25T08:08:34.087Z,96697.72
2022-10-25T08:11:08.278Z,96698.34
2022-10-25T08:13:42.965Z,96700.13
2022-10-25T08:16:15.972Z,96694.59
2022-10-25T08:18:48.865Z,96702.50
2022-10-25T08:21:21.882Z,96693.91
2022-10-25T08:23:55.104Z,96692.97
2022-10-25T08:26:30.151Z,96688.19
2022-10-25T08:29:06.175Z,96690.38
2022-10-25T08:31:39.153Z,96686.75
2022-10-25T08:34:12.228Z,96680.03
2022-10-25T08:36:45.302Z,96686.41
2022-10-25T08:39:18.414Z,96671.97
2022-10-25T08:41:55.126Z,96669.88
2022-10-25T08:44:40.700Z,96667.00
2022-10-25T08:47:19.522Z,96671.41
2022-10-25T08:49:57.090Z,96662.38
2022-10-25T08:52:35.238Z,96655.22
2022-10-25T08:55:18.797Z,96661.56
2022-10-25T08:57:53.948Z,96662.84
2022-10-25T09:00:36.464Z,96665.34
2022-10-25T09:03:15.880Z,96659.69
2022-10-25T09:06:00.345Z,96659.41
2022-10-25T09:08:47.969Z,96654.88
2022-10-25T09:11:38.783Z,96656.50
2022-10-25T09:14:19.423Z,96656.13
2022-10-25T09:16:54.995Z,96646.19
2022-10-25T09:19:50.215Z,96650.53
2022-10-25T09:22:29.906Z,96650.63
2022-10-25T09:25:05.218Z,96650.22
2022-10-25T09:27:40.519Z,96647.19
2022-10-25T09:30:15.084Z,96652.66
2022-10-25T09:32:55.353Z,96652.72
2022-10-25T09:35:33.013Z,96653.94
2022-10-25T09:38:13.224Z,96656.31
2022-10-25T09:40:49.213Z,96655.97
2022-10-25T09:43:28.279Z,96654.91
2022-10-25T09:46:04.660Z,96650.31
2022-10-25T09:48:46.586Z,96659.25
2022-10-25T09:51:25.429Z,96648.44
2022-10-25T09:53:59.979Z,96651.56
2022-10-25T09:56:32.864Z,96644.25
2022-10-25T09:59:05.742Z,96652.00
2022-10-25T10:01:41.153Z,96647.78
2022-10-25T10:04:27.130Z,96653.25
2022-10-25T10:07:07.881Z,96659.44
2022-10-25T10:09:45.933Z,96659.00
2022-10-25T10:12:24.449Z,96653.25
2022-10-25T10:15:02.586Z,96658.66
2022-10-25T10:17:35.913Z,96650.56
2022-10-25T10:20:13.949Z,96655.97
2022-10-25T10:22:53.156Z,96653.25
2022-10-25T10:25:28.827Z,96648.63
2022-10-25T10:28:01.781Z,96643.66
2022-10-25T10:30:38.941Z,96648.28
2022-10-25T10:33:18.575Z,96643.31
2022-10-25T10:35:54.853Z,96642.94
2022-10-25T10:38:29.189Z,96639.88
2022-10-25T10:41:15.762Z,96638.84
2022-10-25T10:43:48.563Z,96633.44
2022-10-25T10:46:24.742Z,96637.34
2022-10-25T10:48:59.216Z,96638.19
2022-10-25T10:51:44.939Z,96627.84
2022-10-25T10:54:30.421Z,96635.25
2022-10-25T10:57:05.479Z,96629.13
2022-10-25T10:59:53.470Z,96627.25
2022-10-25T11:02:39.218Z,96623.84
2022-10-25T11:05:25.527Z,96628.16
2022-10-25T11:08:02.424Z,96619.34
2022-10-25T11:10:36.476Z,96610.88
2022-10-25T11:13:12.638Z,96605.50
2022-10-25T11:16:37.381Z,96608.72
2022-10-25T11:19:32.159Z,96612.19
2022-10-25T11:22:23.540Z,96607.97
2022-10-25T11:25:11.326Z,96602.97
2022-10-25T11:27:56.762Z,96596.09
2022-10-25T11:30:38.152Z,96595.72
2022-10-25T11:33:43.370Z,96591.13
2022-10-25T11:36:27.591Z,96585.00
2022-10-25T11:39:13.265Z,96586.56
2022-10-25T11:41:52.180Z,96588.13
2022-10-25T11:44:48.061Z,96582.78
2022-10-25T11:47:36.750Z,96581.63
2022-10-25T11:50:23.549Z,96579.00
2022-10-25T11:53:20.834Z,96581.78
2022-10-25T11:56:00.142Z,96585.28
2022-10-25T11:58:46.011Z,96579.22
2022-10-25T12:01:31.781Z,96571.94
2022-10-25T12:04:26.953Z,96571.22
2022-10-25T12:07:10.524Z,96567.41
2022-10-25T12:09:51.750Z,96567.47
2022-10-25T12:12:38.795Z,96565.97
2022-10-25T12:15:20.783Z,96557.88
2022-10-25T12:17:54.399Z,96559.84
2022-10-25T12:20:29.656Z,96554.09
2022-10-25T12:23:06.032Z,96550.25
2022-10-25T12:25:42.588Z,96551.09
2022-10-25T12:28:24.208Z,96554.25
2022-10-25T12:31:02.387Z,96546.94
2022-10-25T12:33:40.350Z,96545.78
2022-10-25T12:36:20.542Z,96537.72
2022-10-25T12:38:53.777Z,96540.06
2022-10-25T12:41:30.167Z,96542.00
2022-10-25T12:44:24.160Z,96542.06
2022-10-25T12:47:29.966Z,96537.84
2022-10-25T12:50:31.156Z,96532.81
2022-10-25T12:53:49.704Z,96530.16
2022-10-25T12:56:37.732Z,96528.63
2022-10-25T12:59:26.411Z,96527.09
2022-10-25T13:02:22.233Z,96532.13
2022-10-25T13:05:12.680Z,96530.25
2022-10-25T13:07:50.173Z,96523.69
2022-10-25T13:13:06.582Z,96523.31
2022-10-25T13:15:43.591Z,96526.06
2022-10-25T13:18:40.238Z,96515.63
2022-10-25T13:21:15.465Z,96515.25
2022-10-25T13:24:04.739Z,96514.13
2022-10-25T13:27:21.463Z,96511.84
2022-10-25T13:30:26.770Z,96508.00
2022-10-25T13:33:28.292Z,96505.34
2022-10-25T13:36:04.816Z,96498.00
2022-10-25T13:38:40.054Z,96490.28
2022-10-25T13:41:19.660Z,96498.44
2022-10-25T13:44:02.556Z,96492.28
2022-10-25T13:46:40.152Z,96493.06
2022-10-25T13:49:33.356Z,96496.19
2022-10-25T13:52:09.618Z,96495.03
2022-10-25T13:54:50.998Z,96498.19
2022-10-25T13:57:48.686Z,96495.50
2022-10-25T14:00:38.389Z,96481.56
2022-10-25T14:03:36.388Z,96483.13
2022-10-25T14:06:25.472Z,96483.13
2022-10-25T14:09:09.983Z,96482.38
2022-10-25T14:11:49.909Z,96473.13
2022-10-25T14:14:30.805Z,96471.19
2022-10-25T14:17:13.242Z,96468.88
2022-10-25T14:19:49.183Z,96468.50
2022-10-25T14:22:39.726Z,96476.66
2022-10-25T14:25:22.411Z,96470.09
2022-10-25T14:28:07.061Z,96468.91
2022-10-25T14:30:44.613Z,96468.13
2022-10-25T14:33:28.339Z,96468.91
2022-10-25T14:36:10.451Z,96465.84
2022-10-25T14:38:53.474Z,96464.69
2022-10-25T14:41:28.823Z,96463.09
2022-10-25T14:44:03.406Z,96469.66
2022-10-25T14:46:45.507Z,96449.13
2022-10-25T14:49:23.085Z,96457.25
2022-10-25T14:52:00.658Z,96451.06
2022-10-25T14:54:37.149Z,96458.00
2022-10-25T14:57:12.781Z,96451.81
2022-10-25T14:59:49.411Z,96456.03
2022-10-25T15:02:27.557Z,96464.53
2022-10-25T15:05:02.241Z,96453.28
2022-10-25T15:07:39.728Z,96452.88
2022-10-25T15:10:41.748Z,96446.28
2022-10-25T15:13:18.325Z,96447.44
2022-10-25T15:15:52.653Z,96444.72
2022-10-25T15:18:35.631Z,96449.34
2022-10-25T15:21:13.042Z,96455.88
2022-10-25T15:24:10.403Z,96450.47
2022-10-25T15:26:53.756Z,96458.53
2022-10-25T15:29:32.995Z,96456.16
2022-10-25T15:32:05.869Z,96454.94
2022-10-25T15:34:40.589Z,96451.03
2022-10-25T15:37:15.140Z,96446.75
2022-10-25T15:39:49.402Z,96447.09
2022-10-25T15:42:23.762Z,96452.44
2022-10-25T15:44:57.246Z,96448.16
2022-10-25T15:47:33.451Z,96448.47
2022-10-25T15:50:15.341Z,96449.94
2022-10-25T15:52:48.949Z,96458.38
2022-10-25T15:55:28.162Z,96454.03
2022-10-25T15:58:01.312Z,96458.97
2022-10-25T16:00:34.624Z,96452.69
2022-10-25T16:03:08.543Z,96446.78
2022-10-25T16:05:43.217Z,96446.69
2022-10-25T16:08:16.425Z,96451.25
2022-10-25T16:10:49.474Z,96444.63
2022-10-25T16:13:27.447Z,96444.16
2022-10-25T16:16:04.642Z,96439.41
2022-10-25T16:18:44.858Z,96449.75
2022-10-25T16:21:20.391Z,96435.38
2022-10-25T16:23:53.382Z,96442.19
2022-10-25T16:26:33.821Z,96439.44
2022-10-25T16:29:06.827Z,96434.69
2022-10-25T16:31:39.682Z,96427.66
2022-10-25T16:34:12.983Z,96430.22
2022-10-25T16:36:48.292Z,96424.34
2022-10-25T16:39:21.726Z,96426.16
2022-10-25T16:41:56.854Z,96425.28
2022-10-25T16:44:29.849Z,96412.81
2022-10-25T16:47:02.841Z,96418.88
2022-10-25T16:49:35.762Z,96424.59
2022-10-25T16:52:10.059Z,96416.03
2022-10-25T16:54:42.916Z,96416.28
2022-10-25T16:57:16.692Z,96417.69
2022-10-25T16:59:51.653Z,96424.53
2022-10-25T17:02:26.158Z,96424.84
2022-10-25T17:04:59.007Z,96430.13
2022-10-25T17:07:33.793Z,96426.16
2022-10-25T17:10:07.354Z,96422.97
2022-10-25T17:12:44.484Z,96419.03
2022-10-25T17:15:18.602Z,96424.28
2022-10-25T17:17:51.825Z,96418.72
2022-10-25T17:20:24.860Z,96422.50
2022-10-25T17:23:01.672Z,96425.47
2022-10-25T17:25:35.056Z,96423.84
2022-10-25T17:28:08.606Z,96429.91
2022-10-25T17:30:44.279Z,96433.66
2022-10-25T17:33:17.160Z,96436.22
2022-10-25T17:35:51.306Z,96436.13
2022-10-25T17:38:25.927Z,96441.03
2022-10-25T17:40:58.904Z,96437.47
2022-10-25T17:43:32.216Z,96433.50
2022-10-25T17:46:08.008Z,96433.84
2022-10-25T17:48:40.957Z,96430.38
2022-10-25T17:51:15.820Z,96423.44
2022-10-25T17:53:57.372Z,96424.63
2022-10-25T17:59:08.676Z,96415.50
2022-10-25T18:01:42.020Z,96417.13
2022-10-25T18:04:15.117Z,96419.91
2022-10-25T18:06:47.973Z,96423.44
2022-10-25T18:09:22.253Z,96415.09
2022-10-25T18:11:55.281Z,96422.88
2022-10-25T18:14:28.356Z,96417.91
2022-10-25T18:17:01.765Z,96417.63
2022-10-25T18:19:39.834Z,96419.59
2022-10-25T18:22:12.837Z,96422.00
2022-10-25T18:24:47.526Z,96418.59
2022-10-25T18:27:20.923Z,96417.91
2022-10-25T18:29:55.424Z,96412.13
2022-10-25T18:32:36.287Z,96416.47
2022-10-25T18:35:10.584Z,96409.59
2022-10-25T18:37:43.446Z,96405.75
2022-10-25T18:40:18.405Z,96404.69
2022-10-25T18:42:51.205Z,96403.56
2022-10-25T18:45:24.150Z,96402.44
2022-10-25T18:47:59.093Z,96390.91
2022-10-25T18:50:32.001Z,96389.38
2022-10-25T18:53:05.466Z,96386.69
2022-10-25T18:55:39.854Z,96376.66
2022-10-25T18:58:13.087Z,96380.09
2022-10-25T19:00:47.000Z,96377.31
2022-10-25T19:03:19.810Z,96382.63
2022-10-25T19:05:52.769Z,96375.25
2022-10-25T19:08:25.973Z,96382.88
2022-10-25T19:11:05.483Z,96379.66
2022-10-25T19:13:38.787Z,96371.47
2022-10-25T19:16:13.436Z,96378.28
2022-10-25T19:18:46.618Z,96379.75
2022-10-25T19:21:20.444Z,96387.00
2022-10-25T19:23:54.310Z,96380.00
2022-10-25T19:26:31.199Z,96383.81
2022-10-25T19:29:04.249Z,96378.72
2022-10-25T19:31:37.314Z,96372.56
2022-10-25T19:34:10.131Z,96367.53
2022-10-25T19:36:43.107Z,96362.13
2022-10-25T19:39:15.931Z,96366.75
2022-10-25T19:41:50.546Z,96367.53
2022-10-25T19:44:23.442Z,96354.75
2022-10-25T19:46:56.318Z,96367.44
2022-10-25T19:49:29.263Z,96352.00
2022-10-25T19:52:02.130Z,96341.16
2022-10-25T19:54:34.972Z,96346.91
2022-10-25T19:57:09.396Z,96344.19
2022-10-25T19:59:42.223Z,96347.19
2022-10-25T20:02:15.117Z,96354.78
2022-10-25T20:04:48.019Z,96346.19
2022-10-25T20:07:21.018Z,96345.38
2022-10-25T20:09:54.162Z,96336.41
2022-10-25T20:12:30.778Z,96329.84
2022-10-25T20:15:03.622Z,96337.84
2022-10-25T20:17:37.174Z,96339.75
2022-10-25T20:20:11.474Z,96329.78
2022-10-25T20:22:44.473Z,96325.53
2022-10-25T20:25:17.311Z,96329.00
2022-10-25T20:27:52.002Z,96335.16
2022-10-25T20:30:24.896Z,96328.56
2022-10-25T20:32:57.794Z,96318.94
2022-10-25T20:35:30.658Z,96317.75
2022-10-25T20:38:03.963Z,96314.63
2022-10-25T20:40:36.779Z,96316.09
2022-10-25T20:43:11.119Z,96324.94
2022-10-25T20:45:48.198Z,96326.41
2022-10-25T20:48:21.099Z,96322.53
2022-10-25T20:50:54.170Z,96322.91
2022-10-25T20:53:27.152Z,96315.50
2022-10-25T20:56:00.344Z,96323.13
2022-10-25T20:58:35.663Z,96318.91
2022-10-25T21:01:08.806Z,96331.91
2022-10-25T21:03:42.109Z,96335.41
2022-10-25T21:06:14.893Z,96328.88
2022-10-25T21:08:47.842Z,96333.88
2022-10-25T21:11:20.873Z,96331.97
2022-10-25T21:13:55.342Z,96328.94
2022-10-25T21:16:28.151Z,96344.44
2022-10-25T21:19:04.329Z,96336.78
2022-10-25T21:21:37.128Z,96339.09
2022-10-25T21:24:11.279Z,96339.97
2022-10-25T21:26:44.045Z,96339.28
2022-10-25T21:29:18.401Z,96343.22
2022-10-25T21:31:51.253Z,96339.06
2022-10-25T21:34:24.129Z,96327.22
2022-10-25T21:36:56.948Z,96323.03
2022-10-25T21:39:30.148Z,96330.41
2022-10-25T21:42:02.998Z,96327.34
2022-10-25T21:44:37.331Z,96317.44
2022-10-25T21:47:10.158Z,96314.41
2022-10-25T21:49:42.996Z,96316.38
2022-10-25T21:52:15.841Z,96321.06
2022-10-25T21:54:48.697Z,96316.44
2022-10-25T21:57:21.480Z,96312.28
2022-10-25T21:59:55.788Z,96318.84
2022-10-25T22:02:28.768Z,96320.41
2022-10-25T22:05:01.738Z,96312.75
2022-10-25T22:07:34.693Z,96318.91
2022-10-25T22:10:08.089Z,96316.28
2022-10-25T22:12:40.900Z,96316.28
2022-10-25T22:15:15.112Z,96322.50
2022-10-25T22:17:47.997Z,96326.34
2022-10-25T22:20:20.872Z,96330.25
2022-10-25T22:22:53.696Z,96329.91
2022-10-25T22:25:26.563Z,96329.50
2022-10-25T22:27:59.337Z,96350.34
2022-10-25T22:30:33.857Z,96357.75
2022-10-25T22:33:06.593Z,96358.88
2022-10-25T22:35:39.591Z,96353.13
2022-10-25T22:38:12.371Z,96333.13
2022-10-25T22:40:45.269Z,96362.81
2022-10-25T22:43:18.200Z,96374.72
2022-10-25T22:45:52.812Z,96333.97
2022-10-25T22:48:25.976Z,96345.09
2022-10-25T22:50:59.592Z,96350.44
2022-10-25T22:53:33.089Z,96346.53
2022-10-25T22:56:09.630Z,96342.63
2022-10-25T22:58:44.496Z,96327.97
2022-10-25T23:01:20.948Z,96351.38
2022-10-25T23:03:55.961Z,96334.00
2022-10-25T23:06:31.283Z,96323.16
2022-10-25T23:09:07.103Z,96320.41
2022-10-25T23:11:41.693Z,96332.31
2022-10-25T23:14:17.509Z,96327.25
2022-10-25T23:16:52.807Z,96313.06
2022-10-25T23:19:25.960Z,96314.19
2022-10-25T23:21:59.300Z,96312.28
2022-10-25T23:24:32.442Z,96320.34
2022-10-25T23:27:07.014Z,96308.78
2022-10-25T23:29:40.542Z,96309.19
2022-10-25T23:32:17.636Z,96300.78
2022-10-25T23:34:52.529Z,96293.47
2022-10-25T23:37:29.563Z,96288.50
2022-10-25T23:40:02.404Z,96310.06
2022-10-25T23:42:35.915Z,96323.16
2022-10-25T23:45:11.790Z,96318.56
2022-10-25T23:47:48.041Z,96336.28
2022-10-25T23:50:22.262Z,96335.50
2022-10-25T23:52:55.629Z,96326.66
2022-10-25T23:55:29.072Z,96323.59
2022-10-25T23:58:02.516Z,96308.19
